• Join FlightAware (Why Join?)
  • Login
  • US Flag 
01:43AM EDT


 

Airport Tracker/Info


-or-


 

Live Flight TrackerFlight Track Log ✈ N4920G ✈ 19-Apr-2013 ✈ KLAF - KSBN

Flight Track Log - Related Links

Times and Time Zones

All times are in EDT time to prevent confusion due to time zone crossing. See the N4920G flight status page for this flight to view local times or setup timezone preferences in your user account.

Time Position Orientation Groundspeed Altitude Reporting Facility
EDT Latitude Longitude Course Direction KTS MPH feet Rate Location/Type
04:03PM 40.4672 -86.9372 35° Northeast 95 109 2,100  Level Chicago Center
04:04PM 40.4867 -86.9192 35° Northeast 100 115 2,500 360 Climbing Chicago Center
04:05PM 40.5147 -86.8964 32° Northeast 103 119 2,900 180 Climbing Chicago Center
04:06PM 40.5447 -86.8711 33° Northeast 121 139 2,900 -60 Level Chicago Center
04:07PM 40.5767 -86.8594 16° North 119 137 2,800 -60 Descending Chicago Center
04:08PM 40.6083 -86.8506 12° North 115 132 2,800  Level Chicago Center
04:09PM 40.6400 -86.8417 12° North 115 132 2,800  Level Chicago Center
04:10PM 40.6739 -86.8275 18° North 121 139 2,800  Level Chicago Center
04:11PM 40.7056 -86.8186 12° North 120 138 2,800  Level Chicago Center
04:12PM 40.7372 -86.8069 16° North 119 137 2,800  Level Chicago Center
04:13PM 40.7692 -86.7925 19° North 113 130 2,900  Climbing Chicago Center
04:14PM 40.7989 -86.7781 20° North 118 136 2,900 -60 Level Chicago Center
04:15PM 40.8286 -86.7608 24° Northeast 118 136 2,800 -60 Descending Chicago Center
04:16PM 40.8606 -86.7464 19° North 119 137 2,800  Level Chicago Center
04:17PM 40.8903 -86.7289 24° Northeast 116 133 2,900 -60 Climbing Chicago Center
04:19PM 40.9287 -86.7020 28° Northeast  Level FlightAware Approximate
04:26PM 41.1993 -86.5469 19° North  Level FlightAware Approximate
04:27PM 41.2390 -86.5283 19° North  Level FlightAware Approximate
04:27PM 41.1606 -86.6122 19° North 112 129 2,700  Level Chicago Center
04:28PM 41.2787 -86.5096 19° North  Level FlightAware Approximate
04:28PM 41.1900 -86.5928 26° Northeast 117 135 2,700  Level Chicago Center
04:29PM 41.3184 -86.4910 19° North  Level FlightAware Approximate
04:29PM 41.2200 -86.5681 32° Northeast 122 140 2,700  Level Chicago Center
04:30PM 41.3581 -86.4723 19° North  Level FlightAware Approximate
04:30PM 41.2489 -86.5433 33° Northeast 124 143 2,600  Level Chicago Center
04:31PM 41.3977 -86.4536 19° North  Level FlightAware Approximate
04:31PM 41.2744 -86.5200 34° Northeast 119 137 2,800  Level Chicago Center
04:32PM 41.4374 -86.4349 19° North  Level FlightAware Approximate
04:32PM 41.3008 -86.4939 37° Northeast 118 136 2,700  Level Chicago Center
04:33PM 41.3356 -86.4803 16° North 112 129 2,700  Level Chicago Center
04:34PM 41.3675 -86.4711 12° North 112 129 2,700  Level Chicago Center
04:35PM 41.3975 -86.4569 20° North 115 132 2,700  Level Chicago Center
04:36PM 41.4261 -86.4392 25° Northeast 114 131 2,700  Level Chicago Center
04:37PM 41.4542 -86.4197 27° Northeast 114 131 2,800  Climbing Chicago Center
04:38PM 41.4831 -86.4019 25° Northeast 114 131 2,800  Level Chicago Center
04:39PM 41.5133 -86.3564 48° Northeast 128 147 2,800  Level Chicago Center
04:40PM 41.5403 -86.3228 43° Northeast 133 153 2,800 -60 Level Chicago Center
04:41PM 41.5683 -86.2925 39° Northeast 131 151 2,700 -120 Descending Chicago Center
04:43PM 41.5981 -86.2697 30° Northeast 127 146 2,600 -180 Descending Chicago Center
04:44PM 41.6308 -86.2622 10° North 122 140 2,400 -180 Descending Chicago Center
04:45PM 41.6619 -86.2575 North 117 135 2,300 -360 Descending Chicago Center
04:46PM 41.6981 -86.2586 359° North 113 130 1,700 -600 Descending Chicago Center